createdAt,value
2023-05-23T00:01:38.416Z,40.55
2023-05-23T00:04:05.278Z,41.27
2023-05-23T00:06:32.424Z,43.33
2023-05-23T00:08:59.145Z,42.03
2023-05-23T00:11:27.203Z,44.60
2023-05-23T00:13:54.189Z,43.80
2023-05-23T00:16:21.519Z,43.77
2023-05-23T00:18:50.180Z,43.00
2023-05-23T00:21:20.209Z,43.20
2023-05-23T00:23:46.828Z,44.67
2023-05-23T00:26:13.463Z,43.00
2023-05-23T00:28:40.086Z,43.40
2023-05-23T00:31:07.314Z,43.43
2023-05-23T00:33:34.328Z,43.73
2023-05-23T00:36:00.999Z,43.20
2023-05-23T00:38:28.410Z,41.83
2023-05-23T00:40:55.005Z,43.90
2023-05-23T00:43:22.722Z,43.43
2023-05-23T00:45:49.868Z,43.47
2023-05-23T00:48:16.960Z,43.47
2023-05-23T00:50:43.627Z,44.33
2023-05-23T00:53:10.278Z,47.07
2023-05-23T00:55:37.431Z,47.53
2023-05-23T00:58:04.084Z,47.53
2023-05-23T01:00:34.075Z,46.40
2023-05-23T01:03:01.206Z,45.77
2023-05-23T01:05:27.872Z,48.40
2023-05-23T01:07:54.548Z,46.53
2023-05-23T01:10:26.965Z,45.87
2023-05-23T01:13:21.815Z,47.97
2023-05-23T01:16:04.610Z,46.23
2023-05-23T01:18:41.339Z,48.70
2023-05-23T01:21:15.858Z,47.07
2023-05-23T01:24:24.536Z,47.73
2023-05-23T01:27:23.716Z,49.30
2023-05-23T01:29:56.819Z,49.63
2023-05-23T01:32:25.405Z,48.60
2023-05-23T01:34:53.754Z,51.43
2023-05-23T01:37:20.448Z,52.33
2023-05-23T01:39:47.789Z,53.83
2023-05-23T01:42:14.700Z,55.47
2023-05-23T01:44:41.976Z,54.90
2023-05-23T01:47:09.680Z,54.60
2023-05-23T01:49:37.382Z,58.53
2023-05-23T01:52:05.467Z,57.67
2023-05-23T01:54:35.388Z,58.90
2023-05-23T01:57:02.676Z,58.83
2023-05-23T01:59:29.328Z,60.57
2023-05-23T02:01:56.006Z,61.70
2023-05-23T02:04:22.604Z,60.90
2023-05-23T02:06:49.301Z,63.47
2023-05-23T02:09:16.580Z,61.87
2023-05-23T02:11:43.186Z,62.43
2023-05-23T02:14:11.153Z,63.20
2023-05-23T02:16:38.065Z,70.75
2023-05-23T02:19:04.941Z,65.67
2023-05-23T02:21:34.292Z,64.17
2023-05-23T02:24:01.922Z,62.00
2023-05-23T02:26:28.573Z,64.40
2023-05-23T02:28:55.154Z,65.97
2023-05-23T02:31:22.149Z,64.37
2023-05-23T02:33:48.859Z,64.40
2023-05-23T02:36:15.455Z,65.63
2023-05-23T02:38:42.130Z,65.43
2023-05-23T02:41:08.794Z,63.70
2023-05-23T02:43:35.504Z,64.63
2023-05-23T02:46:02.141Z,64.43
2023-05-23T02:48:28.762Z,62.50
2023-05-23T02:50:55.522Z,63.80
2023-05-23T02:53:22.627Z,65.10
2023-05-23T02:55:49.235Z,64.65
2023-05-23T02:58:16.293Z,64.13
2023-05-23T03:00:44.007Z,64.50
2023-05-23T03:03:11.935Z,61.37
2023-05-23T03:05:39.122Z,64.20
2023-05-23T03:08:06.720Z,60.03
2023-05-23T03:10:33.530Z,59.30
2023-05-23T03:13:00.297Z,61.07
2023-05-23T03:15:26.987Z,57.30
2023-05-23T03:17:53.737Z,60.37
2023-05-23T03:20:20.545Z,59.00
2023-05-23T03:22:47.285Z,57.90
2023-05-23T03:25:16.801Z,60.77
2023-05-23T03:27:43.531Z,57.67
2023-05-23T03:30:10.649Z,56.83
2023-05-23T03:32:37.697Z,63.58
2023-05-23T03:35:04.805Z,55.63
2023-05-23T03:37:31.489Z,54.07
2023-05-23T03:39:58.202Z,56.30
2023-05-23T03:42:24.971Z,54.17
2023-05-23T03:44:51.692Z,57.10
2023-05-23T03:47:18.367Z,56.90
2023-05-23T03:49:45.284Z,55.13
2023-05-23T03:52:12.038Z,55.10
2023-05-23T03:54:38.789Z,55.97
2023-05-23T03:57:05.743Z,53.27
2023-05-23T03:59:32.512Z,56.60
2023-05-23T04:02:00.447Z,54.77
2023-05-23T04:04:30.353Z,54.63
2023-05-23T04:06:58.136Z,61.97
2023-05-23T04:09:24.889Z,55.03
2023-05-23T04:11:52.473Z,54.77
2023-05-23T04:14:22.472Z,54.67
2023-05-23T04:16:49.211Z,53.47
2023-05-23T04:19:16.409Z,52.50
2023-05-23T04:21:43.068Z,51.67
2023-05-23T04:24:09.751Z,51.67
2023-05-23T04:26:36.481Z,50.43
2023-05-23T04:29:06.542Z,51.00
2023-05-23T04:31:34.228Z,52.77
2023-05-23T04:34:02.329Z,52.33
2023-05-23T04:36:30.163Z,55.78
2023-05-23T04:38:56.857Z,50.37
2023-05-23T04:41:24.081Z,55.92
2023-05-23T04:43:54.363Z,51.37
2023-05-23T04:46:27.207Z,50.30
2023-05-23T04:48:55.109Z,51.80
2023-05-23T04:51:22.095Z,50.63
2023-05-23T04:53:50.289Z,49.43
2023-05-23T04:56:28.119Z,51.43
2023-05-23T04:58:56.016Z,50.63
2023-05-23T05:01:25.500Z,49.90
2023-05-23T05:03:52.913Z,48.20
2023-05-23T05:06:21.621Z,48.27
2023-05-23T05:08:48.229Z,47.87
2023-05-23T05:11:14.880Z,49.37
2023-05-23T05:13:41.429Z,48.97
2023-05-23T05:16:08.126Z,53.83
2023-05-23T05:18:35.531Z,50.33
2023-05-23T05:21:02.156Z,48.30
2023-05-23T05:23:30.960Z,50.60
2023-05-23T05:25:57.850Z,48.40
2023-05-23T05:28:24.540Z,51.13
2023-05-23T05:30:54.216Z,49.20
2023-05-23T05:33:23.825Z,49.20
2023-05-23T05:35:53.666Z,49.90
2023-05-23T05:38:20.540Z,49.30
2023-05-23T05:40:47.146Z,47.43
2023-05-23T05:43:13.830Z,49.50
2023-05-23T05:45:40.685Z,48.10
2023-05-23T05:48:07.916Z,48.10
2023-05-23T05:50:34.729Z,46.73
2023-05-23T05:53:01.485Z,47.37
2023-05-23T05:55:28.076Z,47.37
2023-05-23T05:57:54.728Z,48.00
2023-05-23T06:00:21.981Z,48.30
2023-05-23T06:02:48.767Z,47.53
2023-05-23T06:05:16.482Z,47.63
2023-05-23T06:07:44.058Z,48.70
2023-05-23T06:10:14.004Z,49.07
2023-05-23T06:12:40.797Z,48.50
2023-05-23T06:15:09.388Z,46.90
2023-05-23T06:17:36.069Z,47.40
2023-05-23T06:20:03.544Z,46.53
2023-05-23T06:22:30.264Z,46.60
2023-05-23T06:24:56.888Z,45.60
2023-05-23T06:27:23.459Z,42.57
2023-05-23T06:29:50.148Z,44.53
2023-05-23T06:32:16.765Z,43.30
2023-05-23T06:34:43.362Z,43.80
2023-05-23T06:37:09.914Z,43.30
2023-05-23T06:39:36.505Z,43.80
2023-05-23T06:42:04.295Z,42.27
2023-05-23T06:44:30.873Z,45.40
2023-05-23T06:46:58.818Z,43.63
2023-05-23T06:49:25.789Z,44.07
2023-05-23T06:51:52.881Z,42.97
2023-05-23T06:54:19.761Z,44.67
2023-05-23T06:56:46.547Z,47.72
2023-05-23T06:59:13.200Z,41.93
2023-05-23T07:01:40.065Z,42.25
2023-05-23T07:04:06.891Z,37.53
2023-05-23T07:06:35.735Z,37.03
2023-05-23T07:09:02.386Z,34.73
2023-05-23T07:11:29.062Z,33.50
2023-05-23T07:13:55.812Z,31.70
2023-05-23T07:16:22.493Z,32.27
2023-05-23T07:18:49.162Z,30.60
2023-05-23T07:21:15.968Z,30.00
2023-05-23T07:23:42.565Z,28.47
2023-05-23T07:26:09.822Z,30.47
2023-05-23T07:28:37.477Z,31.53
2023-05-23T07:31:04.366Z,36.43
2023-05-23T07:33:31.143Z,39.73
2023-05-23T07:35:57.798Z,41.90
2023-05-23T07:38:26.212Z,41.27
2023-05-23T07:41:06.629Z,36.70
2023-05-23T07:43:37.793Z,31.53
2023-05-23T07:46:04.434Z,29.87
2023-05-23T07:48:31.978Z,27.77
2023-05-23T07:50:58.660Z,26.33
2023-05-23T07:53:25.966Z,25.57
2023-05-23T07:55:52.566Z,24.63
2023-05-23T07:58:19.145Z,23.70
2023-05-23T08:00:46.005Z,25.23
2023-05-23T08:03:13.178Z,24.93
2023-05-23T08:05:40.009Z,23.67
2023-05-23T08:08:06.658Z,25.30
2023-05-23T08:10:33.247Z,24.40
2023-05-23T08:13:00.894Z,26.13
2023-05-23T08:15:28.704Z,24.53
2023-05-23T08:17:57.081Z,24.47
2023-05-23T08:20:30.885Z,23.57
2023-05-23T08:23:01.463Z,23.50
2023-05-23T08:25:31.899Z,22.53
2023-05-23T08:27:59.593Z,22.77
2023-05-23T08:30:27.472Z,23.23
2023-05-23T08:32:55.373Z,22.30
2023-05-23T08:35:22.669Z,23.17
2023-05-23T08:37:49.948Z,22.63
2023-05-23T08:40:21.792Z,21.87
2023-05-23T08:42:49.834Z,21.90
2023-05-23T08:45:17.505Z,24.13
2023-05-23T08:47:45.848Z,21.80
2023-05-23T08:50:14.270Z,22.43
2023-05-23T08:52:55.561Z,22.87
2023-05-23T08:55:26.340Z,23.07
2023-05-23T08:57:53.937Z,23.17
2023-05-23T09:00:22.377Z,22.57
2023-05-23T09:02:49.476Z,23.17
2023-05-23T09:05:16.670Z,23.53
2023-05-23T09:07:46.888Z,22.07
2023-05-23T09:10:14.320Z,20.17
2023-05-23T09:12:41.400Z,20.20
2023-05-23T09:15:09.391Z,19.57
2023-05-23T09:17:36.428Z,20.43
2023-05-23T09:20:07.568Z,19.85
2023-05-23T09:22:34.146Z,18.53
2023-05-23T09:25:00.852Z,18.17
2023-05-23T09:27:27.845Z,16.67
2023-05-23T09:29:54.482Z,18.07
2023-05-23T09:32:21.718Z,18.30
2023-05-23T09:34:54.503Z,17.10
2023-05-23T09:37:24.449Z,16.93
2023-05-23T09:39:51.663Z,16.70
2023-05-23T09:42:25.104Z,16.37
2023-05-23T09:44:51.711Z,14.83
2023-05-23T09:47:18.712Z,15.47
2023-05-23T09:49:46.726Z,16.30
2023-05-23T09:52:13.529Z,14.93
2023-05-23T09:54:40.597Z,15.20
2023-05-23T09:57:11.323Z,13.97
2023-05-23T09:59:42.456Z,12.70
2023-05-23T10:02:12.335Z,12.93
2023-05-23T10:04:43.841Z,14.43
2023-05-23T10:07:17.786Z,13.40
2023-05-23T10:09:50.214Z,12.33
2023-05-23T10:12:39.304Z,13.40
2023-05-23T10:15:08.819Z,11.80
2023-05-23T10:17:58.047Z,11.37
2023-05-23T10:20:26.800Z,10.70
2023-05-23T10:22:54.793Z,10.60
2023-05-23T10:25:21.733Z,9.93
2023-05-23T10:27:50.853Z,10.53
2023-05-23T10:30:18.484Z,11.75
2023-05-23T10:32:46.333Z,10.87
2023-05-23T10:35:23.037Z,11.33
2023-05-23T10:38:07.950Z,10.57
2023-05-23T10:40:42.903Z,11.20
2023-05-23T10:43:40.794Z,9.90
2023-05-23T10:46:13.539Z,10.60
2023-05-23T10:48:44.606Z,9.90
2023-05-23T10:51:14.284Z,9.77
2023-05-23T10:53:42.873Z,9.93
2023-05-23T10:56:11.864Z,8.93
2023-05-23T10:58:41.499Z,8.70
2023-05-23T11:01:09.954Z,8.93
2023-05-23T11:03:38.026Z,8.67
2023-05-23T11:06:06.029Z,9.03
2023-05-23T11:08:48.934Z,9.40
2023-05-23T11:11:16.132Z,9.00
2023-05-23T11:14:02.802Z,10.00
2023-05-23T11:16:43.097Z,10.97
2023-05-23T11:19:19.026Z,10.97
2023-05-23T11:21:49.146Z,10.40
2023-05-23T11:24:17.477Z,11.57
2023-05-23T11:27:00.668Z,11.83
2023-05-23T11:29:30.878Z,13.63
2023-05-23T11:31:57.990Z,12.47
2023-05-23T11:34:27.540Z,11.33
2023-05-23T11:36:57.127Z,12.07
2023-05-23T11:39:23.971Z,10.93
2023-05-23T11:41:59.643Z,11.13
2023-05-23T11:44:26.374Z,11.03
2023-05-23T11:47:03.473Z,10.10
2023-05-23T11:49:31.980Z,10.87
2023-05-23T11:52:02.722Z,10.60
2023-05-23T11:54:29.724Z,9.70
2023-05-23T11:56:56.414Z,9.27
2023-05-23T11:59:26.147Z,9.00
2023-05-23T12:01:53.249Z,9.53
2023-05-23T12:04:20.165Z,8.77
2023-05-23T12:06:48.509Z,9.97
2023-05-23T12:09:15.764Z,10.33
2023-05-23T12:11:43.910Z,17.43
2023-05-23T12:14:18.183Z,9.07
2023-05-23T12:16:46.868Z,8.87
2023-05-23T12:19:16.369Z,8.50
2023-05-23T12:21:48.088Z,8.20
2023-05-23T12:24:21.830Z,8.60
2023-05-23T12:26:51.147Z,8.27
2023-05-23T12:29:35.606Z,8.10
2023-05-23T12:32:04.037Z,8.37
2023-05-23T12:34:30.913Z,7.93
2023-05-23T12:37:18.009Z,7.27
2023-05-23T12:39:46.021Z,8.40
2023-05-23T12:42:12.854Z,7.30
2023-05-23T12:44:41.559Z,6.90
2023-05-23T12:47:08.295Z,7.90
2023-05-23T12:49:34.975Z,7.80
2023-05-23T12:52:01.683Z,7.33
2023-05-23T12:54:28.344Z,7.90
2023-05-23T12:56:55.048Z,6.23
2023-05-23T12:59:21.636Z,6.90
2023-05-23T13:01:48.227Z,5.87
2023-05-23T13:04:14.939Z,6.40
2023-05-23T13:06:41.658Z,6.20
2023-05-23T13:09:08.330Z,5.80
2023-05-23T13:11:34.961Z,5.40
2023-05-23T13:14:01.551Z,6.07
2023-05-23T13:16:28.143Z,5.10
2023-05-23T13:18:54.872Z,5.93
2023-05-23T13:21:22.065Z,5.73
2023-05-23T13:23:48.741Z,5.80
2023-05-23T13:26:15.496Z,5.90
2023-05-23T13:28:42.471Z,5.67
2023-05-23T13:31:09.089Z,5.43
2023-05-23T13:33:35.771Z,4.93
2023-05-23T13:36:02.421Z,5.10
2023-05-23T13:38:30.809Z,5.17
2023-05-23T13:40:57.456Z,5.07
2023-05-23T13:43:24.272Z,4.80
2023-05-23T13:45:50.986Z,5.23
2023-05-23T13:48:17.626Z,4.87
2023-05-23T13:50:45.101Z,5.10
2023-05-23T13:53:16.602Z,5.30
2023-05-23T13:55:45.174Z,5.40
2023-05-23T13:58:12.540Z,5.33
2023-05-23T14:00:40.214Z,6.40
2023-05-23T14:03:08.630Z,5.43
2023-05-23T14:05:36.415Z,5.77
2023-05-23T14:08:04.325Z,6.30
2023-05-23T14:10:31.085Z,6.00
2023-05-23T14:12:57.672Z,5.17
2023-05-23T14:15:24.385Z,5.20
2023-05-23T14:17:55.233Z,5.87
2023-05-23T14:20:22.963Z,5.60
2023-05-23T14:22:50.591Z,5.57
2023-05-23T14:25:17.909Z,6.00
2023-05-23T14:27:44.621Z,5.20
2023-05-23T14:30:11.605Z,5.43
2023-05-23T14:32:41.533Z,5.90
2023-05-23T14:35:10.616Z,6.10
2023-05-23T14:37:37.661Z,6.00
2023-05-23T14:40:09.905Z,6.03
2023-05-23T14:42:36.813Z,5.40
2023-05-23T14:45:03.734Z,5.20
2023-05-23T14:47:30.800Z,4.60
2023-05-23T14:49:57.429Z,4.10
2023-05-23T14:52:24.110Z,4.27
2023-05-23T14:54:50.736Z,4.03
2023-05-23T14:57:17.383Z,4.97
2023-05-23T14:59:44.125Z,4.57
2023-05-23T15:02:10.885Z,5.00
2023-05-23T15:04:37.589Z,4.30
2023-05-23T15:07:04.562Z,4.53
2023-05-23T15:09:31.286Z,4.30
2023-05-23T15:11:57.971Z,4.20
2023-05-23T15:14:29.243Z,3.97
2023-05-23T15:16:56.619Z,3.90
2023-05-23T15:19:23.288Z,4.77
2023-05-23T15:21:51.411Z,5.37
2023-05-23T15:24:18.770Z,5.57
2023-05-23T15:26:45.360Z,5.87
2023-05-23T15:29:13.219Z,6.50
2023-05-23T15:31:39.875Z,5.30
2023-05-23T15:34:06.512Z,5.73
2023-05-23T15:36:33.090Z,5.23
2023-05-23T15:38:59.688Z,4.57
2023-05-23T15:41:26.550Z,4.93
2023-05-23T15:43:53.395Z,4.93
2023-05-23T15:46:20.579Z,4.73
2023-05-23T15:48:47.216Z,5.07
2023-05-23T15:51:13.899Z,5.30
2023-05-23T15:53:58.879Z,4.93
2023-05-23T15:56:27.871Z,5.90
2023-05-23T15:58:55.003Z,6.20
2023-05-23T16:01:21.838Z,6.17
2023-05-23T16:03:48.785Z,7.27
2023-05-23T16:06:15.527Z,7.50
2023-05-23T16:08:42.181Z,9.00
2023-05-23T16:11:08.820Z,8.50
2023-05-23T16:13:35.412Z,8.57
2023-05-23T16:16:03.849Z,6.90
2023-05-23T16:18:30.682Z,6.90
2023-05-23T16:20:57.468Z,6.87
2023-05-23T16:23:24.293Z,6.93
2023-05-23T16:25:50.897Z,7.40
2023-05-23T16:28:18.230Z,7.77
2023-05-23T16:30:44.790Z,8.00
2023-05-23T16:33:11.756Z,8.57
2023-05-23T16:35:38.467Z,7.93
2023-05-23T16:38:05.624Z,8.87
2023-05-23T16:40:32.232Z,8.37
2023-05-23T16:42:58.928Z,8.50
2023-05-23T16:45:25.533Z,8.83
2023-05-23T16:47:52.189Z,8.73
2023-05-23T16:50:18.779Z,9.70
2023-05-23T16:52:45.457Z,9.80
2023-05-23T16:55:12.133Z,7.97
2023-05-23T16:57:38.785Z,11.23
2023-05-23T17:00:06.000Z,11.57
2023-05-23T17:02:32.683Z,8.93
2023-05-23T17:04:59.946Z,7.87
2023-05-23T17:07:26.696Z,7.37
2023-05-23T17:09:53.435Z,7.70
2023-05-23T17:12:20.058Z,7.20
2023-05-23T17:14:48.874Z,9.63
2023-05-23T17:17:15.632Z,8.43
2023-05-23T17:19:42.531Z,11.43
2023-05-23T17:22:09.278Z,6.30
2023-05-23T17:24:36.835Z,5.80
2023-05-23T17:27:04.045Z,5.53
2023-05-23T17:29:30.966Z,5.22
2023-05-23T17:31:57.666Z,6.07
2023-05-23T17:34:24.616Z,5.70
2023-05-23T17:36:52.733Z,5.33
2023-05-23T17:39:19.747Z,4.97
2023-05-23T17:41:46.614Z,4.37
2023-05-23T17:44:13.250Z,4.90
2023-05-23T17:46:40.003Z,5.43
2023-05-23T17:49:07.163Z,4.30
2023-05-23T17:51:33.753Z,4.90
2023-05-23T17:54:00.505Z,5.43
2023-05-23T17:56:27.417Z,5.07
2023-05-23T17:58:53.992Z,5.23
2023-05-23T18:01:20.757Z,5.33
2023-05-23T18:03:48.965Z,5.65
2023-05-23T18:06:15.737Z,6.03
2023-05-23T18:08:42.325Z,6.00
2023-05-23T18:11:08.936Z,6.17
2023-05-23T18:13:35.663Z,6.23
2023-05-23T18:16:02.250Z,5.80
2023-05-23T18:18:28.861Z,5.90
2023-05-23T18:20:55.543Z,6.50
2023-05-23T18:23:22.613Z,6.33
2023-05-23T18:25:49.271Z,6.93
2023-05-23T18:28:15.863Z,5.73
2023-05-23T18:30:42.714Z,5.93
2023-05-23T18:33:09.559Z,5.80
2023-05-23T18:35:36.266Z,6.27
2023-05-23T18:38:02.902Z,6.40
2023-05-23T18:40:29.560Z,7.03
2023-05-23T18:42:56.177Z,6.50
2023-05-23T18:45:22.842Z,6.37
2023-05-23T18:47:50.011Z,7.17
2023-05-23T18:50:16.902Z,6.73
2023-05-23T18:52:43.581Z,7.40
2023-05-23T18:55:11.103Z,7.07
2023-05-23T18:57:37.963Z,7.00
2023-05-23T19:00:05.743Z,6.60
2023-05-23T19:02:32.471Z,7.10
2023-05-23T19:04:59.045Z,7.10
2023-05-23T19:07:25.653Z,6.80
2023-05-23T19:09:52.271Z,6.57
2023-05-23T19:12:19.331Z,6.00
2023-05-23T19:14:46.402Z,4.97
2023-05-23T19:17:13.056Z,5.07
2023-05-23T19:19:39.731Z,5.27
2023-05-23T19:22:06.949Z,5.97
2023-05-23T19:24:33.820Z,7.27
2023-05-23T19:27:01.918Z,7.40
2023-05-23T19:29:28.494Z,6.50
2023-05-23T19:31:55.135Z,6.10
2023-05-23T19:34:22.044Z,5.30
2023-05-23T19:36:48.985Z,5.00
2023-05-23T19:39:15.785Z,4.87
2023-05-23T19:41:42.379Z,4.40
2023-05-23T19:44:09.590Z,4.10
2023-05-23T19:46:36.177Z,4.30
2023-05-23T19:49:02.793Z,4.25
2023-05-23T19:51:29.445Z,4.30
2023-05-23T19:53:56.430Z,3.97
2023-05-23T19:56:23.724Z,4.00
2023-05-23T19:58:50.450Z,4.40
2023-05-23T20:01:17.119Z,4.53
2023-05-23T20:03:43.769Z,4.70
2023-05-23T20:06:10.565Z,5.17
2023-05-23T20:08:37.169Z,5.17
2023-05-23T20:11:03.823Z,4.50
2023-05-23T20:13:30.408Z,4.73
2023-05-23T20:15:57.055Z,5.37
2023-05-23T20:18:23.769Z,5.17
2023-05-23T20:20:50.470Z,5.27
2023-05-23T20:23:17.070Z,5.30
2023-05-23T20:25:43.687Z,5.17
2023-05-23T20:28:10.307Z,4.70
2023-05-23T20:30:37.204Z,5.13
2023-05-23T20:33:03.897Z,5.33
2023-05-23T20:35:30.985Z,5.30
2023-05-23T20:37:58.396Z,5.13
2023-05-23T20:40:25.647Z,5.30
2023-05-23T20:42:52.310Z,5.00
2023-05-23T20:45:19.126Z,7.40
2023-05-23T20:47:46.246Z,10.77
2023-05-23T20:50:13.014Z,5.40
2023-05-23T20:52:41.329Z,7.50
2023-05-23T20:55:08.828Z,5.80
2023-05-23T20:57:36.823Z,4.53
2023-05-23T21:00:13.208Z,4.93
2023-05-23T21:02:40.930Z,5.53
2023-05-23T21:05:08.779Z,4.93
2023-05-23T21:07:35.900Z,5.20
2023-05-23T21:10:03.357Z,4.57
2023-05-23T21:12:30.439Z,4.50
2023-05-23T21:14:57.082Z,4.13
2023-05-23T21:17:23.964Z,4.73
2023-05-23T21:19:51.060Z,5.63
2023-05-23T21:22:17.651Z,17.60
2023-05-23T21:24:44.485Z,6.27
2023-05-23T21:27:11.586Z,5.30
2023-05-23T21:29:38.177Z,12.30
2023-05-23T21:32:04.986Z,12.80
2023-05-23T21:34:31.580Z,6.60
2023-05-23T21:36:58.262Z,4.87
2023-05-23T21:39:26.130Z,4.77
2023-05-23T21:41:53.999Z,4.27
2023-05-23T21:44:20.663Z,4.33
2023-05-23T21:46:47.691Z,4.93
2023-05-23T21:49:14.320Z,5.20
2023-05-23T21:51:41.201Z,4.67
2023-05-23T21:54:07.810Z,4.97
2023-05-23T21:56:34.426Z,5.87
2023-05-23T21:59:01.063Z,4.43
2023-05-23T22:01:27.718Z,4.97
2023-05-23T22:03:54.487Z,4.87
2023-05-23T22:06:21.185Z,4.67
2023-05-23T22:08:47.840Z,4.97
2023-05-23T22:11:14.521Z,4.60
2023-05-23T22:13:41.092Z,5.10
2023-05-23T22:16:07.916Z,5.07
2023-05-23T22:18:51.101Z,5.07
2023-05-23T22:21:18.737Z,5.40
2023-05-23T22:23:45.862Z,4.90
2023-05-23T22:26:12.794Z,5.40
2023-05-23T22:28:39.575Z,4.90
2023-05-23T22:31:06.533Z,4.90
2023-05-23T22:33:33.231Z,5.23
2023-05-23T22:35:59.901Z,5.10
2023-05-23T22:38:26.494Z,4.23
2023-05-23T22:40:53.102Z,4.90
2023-05-23T22:43:21.499Z,5.07
2023-05-23T22:45:49.902Z,4.43
2023-05-23T22:48:19.224Z,4.23
2023-05-23T22:50:46.600Z,4.73
2023-05-23T22:53:16.517Z,4.40
2023-05-23T22:55:43.310Z,4.90
2023-05-23T22:58:10.002Z,4.23
2023-05-23T23:00:36.689Z,4.30
2023-05-23T23:03:03.948Z,4.17
2023-05-23T23:05:30.856Z,4.87
2023-05-23T23:07:57.523Z,4.47
2023-05-23T23:10:24.293Z,4.47
2023-05-23T23:12:51.085Z,5.10
2023-05-23T23:15:17.754Z,4.93
2023-05-23T23:17:44.896Z,4.50
2023-05-23T23:20:12.781Z,4.77
2023-05-23T23:22:39.741Z,4.73
2023-05-23T23:25:10.668Z,4.53
2023-05-23T23:27:38.101Z,5.27
2023-05-23T23:30:06.542Z,5.17
2023-05-23T23:32:34.278Z,4.93
2023-05-23T23:35:01.331Z,4.97
2023-05-23T23:37:27.952Z,4.80
2023-05-23T23:39:54.540Z,5.00
2023-05-23T23:42:21.133Z,4.50
2023-05-23T23:44:47.733Z,4.43
2023-05-23T23:47:14.387Z,4.70
2023-05-23T23:49:41.755Z,4.40
2023-05-23T23:52:08.892Z,4.80
2023-05-23T23:54:35.592Z,4.87
2023-05-23T23:57:02.212Z,4.93
2023-05-23T23:59:28.802Z,4.63
